Latest Weather Observations for West Roebuck

IDW60801

Issued at 6:33 pm WST Thursday 21 November 2019 (issued every 10 minutes, with the page automatically refreshed every 10 minutes)

About weather observations | Map of weather stations | Latest weather observations for WA | Other Formats
Station Details ID: 003096 Name: WEST ROEBUCK Lat: -17.90 Lon: 122.31 Height: 32.0 m
Data from the previous 72 hours. | See also: Recent months at West Roebuck
Date/Time
WST
Temp
°C
App
Temp
°C
Dew
Point
°C
Rel
Hum
%
Delta-T
°C
Wind Press
QNH
hPa
Press
MSL
hPa
Rain since
9am
mm
Dir  Spd
km/h
Gust
km/h
Spd
kts
Gust
kts
21/06:30pm 28.8 - - - - WNW 13 19 7 10 - - 0.0
21/06:00pm 29.6 - - - - W 13 19 7 10 - - 0.0
21/05:30pm 30.2 - - - - N 9 17 5 9 - - 0.0
21/05:00pm 30.8 - - - - W 22 32 12 17 - - 0.0
21/04:30pm 31.7 - - - - WNW 22 33 12 18 - - 0.0
21/04:00pm 32.1 - - - - W 24 37 13 20 - - 0.0
21/03:30pm 32.7 - - - - W 24 33 13 18 - - 0.0
21/03:00pm 33.6 - - - - W 24 35 13 19 - - 0.0
21/02:30pm 34.0 - - - - W 22 33 12 18 - - 0.0
21/02:00pm 34.0 - - - - W 24 35 13 19 - - 0.0
21/01:30pm 34.8 - - - - W 20 32 11 17 - - 0.0
21/01:00pm 35.5 - - - - WSW 20 28 11 15 - - 0.0
21/12:30pm 35.6 - - - - W 17 28 9 15 - - 0.0
21/12:00pm 34.8 - - - - WSW 17 26 9 14 - - 0.0
21/11:30am 35.2 - - - - WSW 17 24 9 13 - - 0.0
21/11:00am 34.7 - - - - W 17 24 9 13 - - 0.0
21/10:30am 34.6 - - - - SW 15 22 8 12 - - 0.0
21/10:00am 32.6 - - - - SW 15 24 8 13 - - 0.0
21/09:30am 33.4 - - - - WSW 13 20 7 11 - - 0.0
21/09:00am 32.7 - - - - WSW 13 19 7 10 - - 0.0
21/08:30am 30.9 - - - - WSW 17 28 9 15 - - 0.0
21/08:00am 30.5 - - - - SSW 15 28 8 15 - - 0.0
21/07:30am 29.4 - - - - S 15 22 8 12 - - 0.0
21/07:00am 28.4 - - - - SW 7 15 4 8 - - 0.0
21/06:30am 26.2 - - - - SSW 6 9 3 5 - - 0.0
21/06:00am 24.8 - - - - SW 7 9 4 5 - - 0.0
21/05:30am 24.2 - - - - SW 7 11 4 6 - - 0.0
21/05:00am 24.3 - - - - SW 7 13 4 7 - - 0.0
21/04:30am 23.6 - - - - W 7 9 4 5 - - 0.0
21/04:00am 22.9 - - - - WNW 9 11 5 6 - - 0.0
21/03:30am 21.6 - - - - NW 7 9 4 5 - - 0.0
21/03:00am 22.8 - - - - NW 6 7 3 4 - - 0.0
21/02:30am 23.0 - - - - NNW 6 7 3 4 - - 0.0
21/02:00am 23.5 - - - - NNW 7 9 4 5 - - 0.0
21/01:30am 23.6 - - - - N 6 9 3 5 - - 0.0
21/01:00am 23.8 - - - - NW 2 9 1 5 - - 0.0
21/12:30am 23.9 - - - - NW 9 11 5 6 - - 0.0
21/12:00am 24.0 - - - - NNW 7 9 4 5 - - 0.0
 
Date/Time
WST
Temp
°C
App
Temp
°C
Dew
Point
°C
Rel
Hum
%
Delta-T
°C
Wind Press
QNH
hPa
Press
MSL
hPa
Rain since
9am
mm
Dir  Spd
km/h
Gust
km/h
Spd
kts
Gust
kts
20/11:30pm 24.1 - - - - CALM 0 0 0 0 - - 0.0
20/11:00pm 24.2 - - - - NW 4 6 2 3 - - 0.0
20/10:30pm 24.3 - - - - CALM 0 0 0 0 - - 0.0
20/10:00pm 25.1 - - - - ENE 7 11 4 6 - - 0.0
20/09:30pm 24.3 - - - - NW 7 11 4 6 - - 0.0
20/09:00pm 25.7 - - - - NNE 2 7 1 4 - - 0.0
20/08:30pm 26.5 - - - - WNW 9 13 5 7 - - 0.0
20/08:00pm 26.8 - - - - WNW 7 13 4 7 - - 0.0
20/07:30pm 27.1 - - - - WNW 9 13 5 7 - - 0.0
20/07:00pm 27.7 - - - - WNW 9 15 5 8 - - 0.0
20/06:30pm 28.2 - - - - NW 9 15 5 8 - - 0.0
20/06:00pm 28.7 - - - - WNW 13 20 7 11 - - 0.0
20/05:30pm 29.7 - - - - WNW 17 22 9 12 - - 0.0
20/05:00pm 30.5 - - - - WNW 19 28 10 15 - - 0.0
20/04:30pm 31.6 - - - - WNW 19 32 10 17 - - 0.0
20/04:00pm 32.0 - - - - WNW 19 28 10 15 - - 0.0
20/03:30pm 33.0 - - - - W 19 28 10 15 - - 0.0
20/03:00pm 33.0 - - - - W 17 30 9 16 - - 0.0
20/02:30pm 32.9 - - - - W 19 30 10 16 - - 0.0
20/02:00pm 34.1 - - - - W 17 30 9 16 - - 0.0
20/01:30pm 33.4 - - - - W 17 30 9 16 - - 0.0
20/01:00pm 33.6 - - - - W 19 32 10 17 - - 0.0
20/12:30pm 34.2 - - - - W 19 30 10 16 - - 0.0
20/12:00pm 33.6 - - - - W 19 30 10 16 - - 0.0
20/11:30am 34.4 - - - - W 19 30 10 16 - - 0.0
20/11:00am 32.9 - - - - W 20 30 11 16 - - 0.0
20/10:30am 33.3 - - - - W 17 28 9 15 - - 0.0
20/10:00am 32.5 - - - - W 19 30 10 16 - - 0.0
20/09:30am 32.7 - - - - W 19 28 10 15 - - 0.0
20/09:00am 32.1 - - - - W 17 28 9 15 - - 0.0
20/08:30am 31.8 - - - - W 20 30 11 16 - - 0.0
20/08:00am 31.1 - - - - WSW 19 30 10 16 - - 0.0
20/07:30am 30.3 - - - - W 17 24 9 13 - - 0.0
20/07:00am 29.6 - - - - W 17 24 9 13 - - 0.0
20/06:30am 28.9 - - - - W 17 24 9 13 - - 0.0
20/06:00am 27.6 - - - - W 11 17 6 9 - - 0.0
20/05:30am 26.3 - - - - W 9 15 5 8 - - 0.0
20/05:00am 25.9 - - - - W 9 13 5 7 - - 0.0
20/04:30am 26.1 - - - - W 11 19 6 10 - - 0.0
20/04:00am 26.2 - - - - W 13 17 7 9 - - 0.0
20/03:30am 26.0 - - - - W 11 13 6 7 - - 0.0
20/03:00am 26.2 - - - - W 13 19 7 10 - - 0.0
20/02:30am 26.1 - - - - W 11 17 6 9 - - 0.0
20/02:00am 25.9 - - - - W 9 13 5 7 - - 0.0
20/01:30am 26.0 - - - - WNW 11 17 6 9 - - 0.0
20/01:00am 25.2 - - - - WNW 9 11 5 6 - - 0.0
20/12:30am 25.0 - - - - WNW 9 13 5 7 - - 0.0
20/12:00am 25.3 - - - - NW 9 11 5 6 - - 0.0
 
Date/Time
WST
Temp
°C
App
Temp
°C
Dew
Point
°C
Rel
Hum
%
Delta-T
°C
Wind Press
QNH
hPa
Press
MSL
hPa
Rain since
9am
mm
Dir  Spd
km/h
Gust
km/h
Spd
kts
Gust
kts
19/11:30pm 25.8 - - - - WNW 9 15 5 8 - - 0.0
19/11:00pm 26.2 - - - - NW 11 17 6 9 - - 0.0
19/10:30pm 26.3 - - - - NW 13 19 7 10 - - 0.0
19/10:00pm 26.5 - - - - NW 13 20 7 11 - - 0.0
19/09:30pm 26.4 - - - - WNW 11 17 6 9 - - 0.0
19/09:00pm 26.4 - - - - NW 9 13 5 7 - - 0.0
19/08:30pm 26.7 - - - - NW 7 13 4 7 - - 0.0
19/08:00pm 26.9 - - - - NW 9 17 5 9 - - 0.0
19/07:30pm 27.3 - - - - NW 11 17 6 9 - - 0.0
19/07:00pm 27.6 - - - - NW 13 20 7 11 - - 0.0
19/06:30pm 28.1 - - - - NW 13 20 7 11 - - 0.0
19/06:00pm 28.8 - - - - NW 13 20 7 11 - - 0.0
19/05:30pm 30.0 - - - - WNW 15 24 8 13 - - 0.0
19/05:00pm 31.1 - - - - WNW 17 26 9 14 - - 0.0
19/04:30pm 31.9 - - - - W 19 28 10 15 - - 0.0
19/04:00pm 32.3 - - - - W 17 30 9 16 - - 0.0
19/03:30pm 33.1 - - - - W 19 30 10 16 - - 0.0
19/03:00pm 33.9 - - - - W 19 28 10 15 - - 0.0
19/02:30pm 33.5 - - - - W 20 32 11 17 - - 0.0
19/02:00pm 34.2 - - - - WSW 19 28 10 15 - - 0.0
19/01:30pm 34.3 - - - - WSW 20 32 11 17 - - 0.0
19/01:00pm 34.1 - - - - W 19 28 10 15 - - 0.0
19/12:30pm 35.0 - - - - WSW 17 28 9 15 - - 0.0
19/12:00pm 34.3 - - - - W 19 30 10 16 - - 0.0
19/11:30am 33.9 - - - - W 17 30 9 16 - - 0.0
19/11:00am 34.4 - - - - W 19 28 10 15 - - 0.0
19/10:30am 34.4 - - - - WNW 17 26 9 14 - - 0.0
19/10:00am 33.6 - - - - WNW 15 22 8 12 - - 0.0
19/09:30am 33.7 - - - - W 13 24 7 13 - - 0.0
19/09:00am 32.5 - - - - W 15 24 8 13 - - 0.0
19/08:30am 31.9 - - - - WNW 15 24 8 13 - - 0.0
19/08:00am 31.6 - - - - WNW 15 22 8 12 - - 0.0
19/07:30am 30.1 - - - - WNW 15 24 8 13 - - 0.0
19/07:00am 28.3 - - - - NW 11 17 6 9 - - 0.0
19/06:30am 26.2 - - - - N 9 17 5 9 - - 0.0
19/06:00am 25.0 - - - - NNW 6 13 3 7 - - 0.0
19/05:30am 24.2 - - - - ENE 6 11 3 6 - - 0.0
19/05:00am 24.2 - - - - NNW 9 13 5 7 - - 0.0
19/04:30am 24.3 - - - - NNW 9 15 5 8 - - 0.0
19/04:00am 24.0 - - - - N 9 11 5 6 - - 0.0
19/03:30am 24.0 - - - - NW 9 13 5 7 - - 0.0
19/03:00am 23.0 - - - - NNW 6 11 3 6 - - 0.0
19/02:30am 23.9 - - - - N 9 11 5 6 - - 0.0
19/02:00am 24.0 - - - - NNE 7 15 4 8 - - 0.0
19/01:30am 23.8 - - - - W 9 13 5 7 - - 0.0
19/01:00am 22.6 - - - - WNW 4 11 2 6 - - 0.0
19/12:30am 23.5 - - - - WNW 4 9 2 5 - - 0.0
19/12:00am 23.8 - - - - CALM 0 0 0 0 - - 0.0
 
Date/Time
WST
Temp
°C
App
Temp
°C
Dew
Point
°C
Rel
Hum
%
Delta-T
°C
Wind Press
QNH
hPa
Press
MSL
hPa
Rain since
9am
mm
Dir  Spd
km/h
Gust
km/h
Spd
kts
Gust
kts
18/11:30pm 24.4 - - - - CALM 0 0 0 0 - - 0.0
18/11:00pm 24.7 - - - - W 6 7 3 4 - - 0.0
18/10:30pm 25.0 - - - - NW 6 9 3 5 - - 0.0
18/10:00pm 25.6 - - - - WNW 7 9 4 5 - - 0.0
18/09:30pm 26.3 - - - - NW 6 9 3 5 - - 0.0
18/09:00pm 26.8 - - - - WNW 11 15 6 8 - - 0.0
18/08:30pm 27.1 - - - - NW 11 15 6 8 - - 0.0
18/08:00pm 27.4 - - - - NW 11 15 6 8 - - 0.0
18/07:30pm 27.6 - - - - NW 13 17 7 9 - - 0.0
18/07:00pm 28.0 - - - - NW 13 20 7 11 - - 0.0

Other formats

Comma delimited format used in spreadsheet applications
http://www.bom.gov.au/fwo/IDW60801/IDW60801.95204.axf

JavaScript Object Notation format (JSON) in row-major order
http://www.bom.gov.au/fwo/IDW60801/IDW60801.95204.json

Data quality

Most of these data are generated automatically and are frequently updated. Quality checks on data are not normally performed. It is possible for incorrect values to appear. Refer to information at About Latest Weather Observations and please check the disclaimer before using these data.